ADDS METAR Data INFO
IDs: Format: Raw Decoded Include TAF

Data at: 0902 UTC 20 Oct 2017

KMNE 200855Z AUTO 00000KT 10SM CLR 17/13 A3014 RMK AO2 T01670132
KMNE 200835Z AUTO 11004KT 10SM CLR 17/13 A3015 RMK AO2 T01660130
KMNE 200815Z AUTO 10003KT 10SM CLR 17/13 A3015 RMK AO2 T01650127
KMNE 200755Z AUTO 00000KT 10SM CLR 17/13 A3016 RMK AO2 T01650126
KMNE 200735Z AUTO 10003KT 10SM CLR 17/13 A3015 RMK AO2 T01660127
KMNE 200715Z AUTO 10004KT 10SM CLR 17/13 A3016 RMK AO2 T01670125
KMNE 200655Z AUTO 10003KT 10SM CLR 17/13 A3016 RMK AO2 T01650125
KMNE 200635Z AUTO 10005KT 10SM CLR 17/13 A3016 RMK AO2 T01650125
KMNE 200615Z AUTO 11004KT 10SM CLR 16/13 A3016 RMK AO2 T01630125
KMNE 200555Z AUTO 00000KT 10SM CLR 16/13 A3017 RMK AO2 T01600125 10220 20152 402740103
KMNE 200535Z AUTO 09004KT 10SM CLR 16/13 A3016 RMK AO2 T01590126
KMNE 200515Z AUTO 09003KT 10SM CLR 16/13 A3016 RMK AO2 T01550127
KMNE 200455Z AUTO 00000KT 10SM CLR 16/13 A3017 RMK AO2 T01560129
KMNE 200435Z AUTO 00000KT 10SM CLR 16/13 A3017 RMK AO2 T01630130
KMNE 200415Z AUTO 10003KT 10SM CLR 17/13 A3017 RMK AO2 T01660134
KMNE 200355Z AUTO 10003KT 10SM CLR 17/14 A3016 RMK AO2 T01700136
KMNE 200335Z AUTO 00000KT 10SM CLR 17/14 A3016 RMK AO2 T01700141
KMNE 200315Z AUTO 00000KT 10SM CLR 17/14 A3016 RMK AO2 T01660141
KMNE 200255Z AUTO 00000KT 10SM CLR 17/15 A3016 RMK AO2 T01700145
KMNE 200235Z AUTO 00000KT 10SM CLR 17/14 A3015 RMK AO2 T01680143
KMNE 200215Z AUTO 00000KT 10SM CLR 18/15 A3015 RMK AO2 LTG DSNT S T01750146
KMNE 200155Z AUTO 00000KT 10SM CLR 18/15 A3015 RMK AO2 T01760148
KMNE 200135Z AUTO 00000KT 10SM CLR 19/15 A3016 RMK AO2 T01860151
KMNE 200115Z AUTO 00000KT 10SM CLR 19/15 A3016 RMK AO2 T01910152
KMNE 200055Z AUTO 00000KT 10SM CLR 19/15 A3016 RMK AO2 T01870153
KMNE 200035Z AUTO 00000KT 10SM CLR 20/16 A3015 RMK AO2 T02020155
KMNE 200015Z AUTO 00000KT 10SM CLR 21/16 A3015 RMK AO2 T02120155
KMNE 192355Z AUTO 07003KT 10SM CLR 22/15 A3014 RMK AO2 T02190153 10274 20219
KMNE 192335Z AUTO 09005KT 10SM CLR 23/15 A3014 RMK AO2 T02340152
KMNE 192320Z AUTO 08006KT 10SM CLR 24/15 A3014 RMK AO2 T02410151
KMNE 192255Z AUTO 09006KT 10SM CLR 25/15 A3014 RMK AO2 T02510148
KMNE 192235Z AUTO 09005KT 10SM CLR 26/15 A3014 RMK AO2 T02560150
KMNE 192215Z AUTO 09005KT 10SM CLR 26/15 A3014 RMK AO2 T02550147
KMNE 192155Z AUTO 09006KT 10SM CLR 26/15 A3014 RMK AO2 T02620147 PWINO
KMNE 192135Z AUTO 13004KT 10SM CLR 27/15 A3014 RMK AO2 T02670146
KMNE 192115Z AUTO 14003KT 10SM CLR 27/14 A3015 RMK AO2 T02710142
KMNE 192055Z AUTO 08004KT 10SM CLR 27/14 A3015 RMK AO2 T02670142
KMNE 192035Z AUTO 10005KT 10SM CLR 27/14 A3015 RMK AO2 T02680141
KMNE 192015Z AUTO 07004KT 10SM CLR 27/14 A3015 RMK AO2 T02690136
KMNE 191955Z AUTO 05004KT 10SM CLR 27/13 A3015 RMK AO2 T02660132
KMNE 191935Z AUTO 10005KT 10SM CLR 27/13 A3016 RMK AO2 T02660132
KMNE 191915Z AUTO 14007KT 100V160 10SM CLR 27/14 A3017 RMK AO2 T02710135
KMNE 191855Z AUTO 15004KT 10SM CLR 26/14 A3018 RMK AO2 T02640136
KMNE 191835Z AUTO 11006KT 10SM CLR 26/14 A3019 RMK AO2 T02570136
KMNE 191815Z AUTO 08004KT 10SM CLR 25/13 A3020 RMK AO2 T02540133
KMNE 191755Z AUTO 13004KT 10SM CLR 25/14 A3021 RMK AO2 T02530142 10256 20103
KMNE 191735Z AUTO 00000KT 10SM CLR 25/14 A3022 RMK AO2 T02480136
KMNE 191715Z AUTO 00000KT 10SM CLR 24/14 A3023 RMK AO2 T02420141 PWINO
KMNE 191655Z AUTO 00000KT 10SM CLR 24/15 A3023 RMK AO2 T02440145
KMNE 191635Z AUTO 07004KT 10SM CLR 24/16 A3023 RMK AO2 T02350156
KMNE 191615Z AUTO 00000KT 10SM CLR 23/16 A3024 RMK AO2 T02310156
KMNE 191555Z AUTO 00000KT 10SM CLR 22/16 A3024 RMK AO2 T02230159
KMNE 191535Z AUTO 00000KT 10SM CLR 21/16 A3024 RMK AO2 T02140156
KMNE 191515Z AUTO 00000KT 10SM CLR 20/15 A3024 RMK AO2 T01990151
KMNE 191455Z AUTO 08003KT 10SM CLR 19/15 A3024 RMK AO2 T01850147
KMNE 191435Z AUTO 10004KT 10SM CLR 17/14 A3024 RMK AO2 T01740141
KMNE 191415Z AUTO 11004KT 10SM CLR 17/14 A3024 RMK AO2 T01670140
KMNE 191355Z AUTO 11004KT 10SM CLR 16/14 A3022 RMK AO2 T01610137
KMNE 191335Z AUTO 09003KT 10SM CLR 15/13 A3021 RMK AO2 T01510133
KMNE 191315Z AUTO 00000KT 10SM CLR 14/12 A3021 RMK AO2 T01350120
KMNE 191255Z AUTO 00000KT 10SM CLR 13/11 A3020 RMK AO2 T01250114
KMNE 191235Z AUTO 08003KT 10SM CLR 12/11 A3020 RMK AO2 T01180108
KMNE 191215Z AUTO 00000KT 10SM CLR 12/11 A3020 RMK AO2 T01150107
KMNE 191155Z AUTO 00000KT 10SM CLR 11/10 A3019 RMK AO2 T01050096 10157 20105
KMNE 191135Z AUTO 00000KT 10SM CLR 11/10 A3019 RMK AO2 T01110102
KMNE 191115Z AUTO 00000KT 10SM CLR 11/10 A3018 RMK AO2 T01090098
KMNE 191055Z AUTO 00000KT 10SM CLR 12/11 A3017 RMK AO2 T01160105
KMNE 191035Z AUTO 00000KT 10SM CLR 12/10 A3017 RMK AO2 T01150103
KMNE 191015Z AUTO 00000KT 10SM CLR 12/11 A3017 RMK AO2 T01200106
KMNE 190955Z AUTO 00000KT 10SM CLR 13/11 A3016 RMK AO2 T01250110
KMNE 190935Z AUTO 00000KT 10SM CLR 13/11 A3016 RMK AO2 T01270110
KMNE 190915Z AUTO 00000KT 10SM CLR 13/11 A3016 RMK AO2 T01310110
KMNE 190855Z AUTO 00000KT 10SM CLR 14/11 A3016 RMK AO2 T01380112
KMNE 190835Z AUTO 00000KT 10SM CLR 14/11 A3016 RMK AO2 T01400112
KMNE 190815Z AUTO 00000KT 10SM CLR 14/11 A3016 RMK AO2 T01440114
KMNE 190755Z AUTO 11003KT 10SM CLR 14/11 A3016 RMK AO2 T01430111
KMNE 190735Z AUTO 10003KT 10SM CLR 14/11 A3016 RMK AO2 T01410107
KMNE 190715Z AUTO 00000KT 10SM CLR 14/11 A3016 RMK AO2 T01420107
KMNE 190655Z AUTO 00000KT 10SM CLR 15/11 A3015 RMK AO2 T01480106
KMNE 190635Z AUTO 09004KT 10SM CLR 15/11 A3015 RMK AO2 T01510108
KMNE 190615Z AUTO 10003KT 10SM CLR 16/11 A3015 RMK AO2 T01570110
KMNE 190555Z AUTO 10003KT 10SM CLR 16/11 A3015 RMK AO2 T01560110 10208 20148 402710080
KMNE 190535Z AUTO 11004KT 10SM CLR 15/11 A3015 RMK AO2 T01490113
KMNE 190515Z AUTO 09004KT 10SM CLR 16/12 A3016 RMK AO2 T01560115
KMNE 190455Z AUTO 10003KT 10SM CLR 16/12 A3016 RMK AO2 T01580118
KMNE 190435Z AUTO 09004KT 10SM CLR 15/12 A3017 RMK AO2 T01540117
KMNE 190415Z AUTO 09004KT 10SM CLR 16/12 A3016 RMK AO2 T01600120
KMNE 190355Z AUTO 09003KT 10SM CLR 16/12 A3017 RMK AO2 T01550120
KMNE 190335Z AUTO 09003KT 10SM CLR 15/12 A3017 RMK AO2 T01510122
KMNE 190315Z AUTO 00000KT 10SM CLR 16/12 A3017 RMK AO2 T01550124
KMNE 190255Z AUTO 00000KT 10SM CLR 15/13 A3017 RMK AO2 T01520126
KMNE 190235Z AUTO 00000KT 10SM CLR 16/13 A3017 RMK AO2 T01550126
KMNE 190215Z AUTO 09003KT 10SM CLR 16/13 A3017 RMK AO2 T01570128
KMNE 190155Z AUTO 00000KT 10SM CLR 16/13 A3017 RMK AO2 T01580130
KMNE 190135Z AUTO 00000KT 10SM CLR 16/13 A3017 RMK AO2 T01630130
KMNE 190115Z AUTO 00000KT 10SM CLR 17/13 A3016 RMK AO2 T01670132
KMNE 190055Z AUTO 00000KT 10SM CLR 17/13 A3016 RMK AO2 T01730132
KMNE 190035Z AUTO 00000KT 10SM CLR 18/13 A3016 RMK AO2 T01800133
KMNE 190015Z AUTO 00000KT 10SM CLR 19/13 A3015 RMK AO2 T01930127
KMNE 182355Z AUTO 00000KT 10SM CLR 21/13 A3015 RMK AO2 T02120126 10271 20212
KMNE 182335Z AUTO 00000KT 10SM CLR 23/12 A3014 RMK AO2 T02340122
KMNE 182315Z AUTO 00000KT 10SM CLR 25/12 A3014 RMK AO2 T02450119
KMNE 182255Z AUTO 13004KT 10SM CLR 25/12 A3013 RMK AO2 T02540117
KMNE 182235Z AUTO 15004KT 10SM CLR 26/11 A3013 RMK AO2 T02600114 PWINO
KMNE 182215Z AUTO 00000KT 10SM CLR 27/12 A3013 RMK AO2 T02650115
KMNE 182155Z AUTO 11005KT 10SM CLR 27/12 A3013 RMK AO2 T02660117 PWINO
KMNE 182135Z AUTO 00000KT 10SM CLR 27/12 A3013 RMK AO2 T02660116
KMNE 182115Z AUTO 08004KT 10SM CLR 27/11 A3013 RMK AO2 T02690114